Time;durP1;ratioP1;P1;durP2;ratioP2;P2;SDS_P1;SDS_P2;PMS_P1;PMS_P2;Temp;Humidity;BMP_temperature;BMP_pressure;BME280_temperature;BME280_humidity;BME280_pressure;Samples;Min_cycle;Max_cycle;Signal;HPM_P1;HPM_P2
2023/03/19 00:01:59;;;;;;;33.00;20.20;;;;;;;6.41;44.41;100687.13;103754;279;39429;-73
2023/03/19 00:04:33;;;;;;;29.30;17.50;;;;;;;6.37;44.51;100686.87;103762;279;38211;-74
2023/03/19 00:07:08;;;;;;;24.00;14.30;;;;;;;6.33;44.66;100682.94;103788;279;38237;-73
2023/03/19 00:09:42;;;;;;;22.50;13.60;;;;;;;6.28;44.89;100680.59;103642;279;175468;-73
2023/03/19 00:12:16;;;;;;;22.50;14.10;;;;;;;6.27;44.90;100680.96;103769;279;38258;-73
2023/03/19 00:14:51;;;;;;;24.90;14.80;;;;;;;6.25;45.03;100679.60;103797;279;38206;-74
2023/03/19 00:17:25;;;;;;;26.60;14.70;;;;;;;6.23;45.20;100680.48;103753;279;39872;-74
2023/03/19 00:20:00;;;;;;;25.50;14.20;;;;;;;6.21;45.32;100677.92;103826;279;38635;-75
2023/03/19 00:22:36;;;;;;;25.50;14.70;;;;;;;6.20;45.39;100680.71;103781;279;39440;-74
2023/03/19 00:25:12;;;;;;;26.90;14.70;;;;;;;6.19;45.35;100675.89;103756;279;39469;-72
2023/03/19 00:27:46;;;;;;;27.00;14.40;;;;;;;6.18;45.41;100679.17;103743;279;39426;-73
2023/03/19 00:30:21;;;;;;;25.30;15.50;;;;;;;6.15;45.62;100676.63;103696;279;38527;-73
2023/03/19 00:32:56;;;;;;;25.80;15.00;;;;;;;6.11;45.59;100673.56;103699;279;38638;-70
2023/03/19 00:35:30;;;;;;;26.90;14.40;;;;;;;6.09;45.66;100673.77;103697;279;38712;-70
2023/03/19 00:38:05;;;;;;;25.40;14.60;;;;;;;6.05;45.76;100676.08;103620;279;175467;-73
2023/03/19 00:40:39;;;;;;;28.00;15.30;;;;;;;6.00;45.83;100677.55;103676;279;38522;-73
2023/03/19 00:43:13;;;;;;;24.10;14.20;;;;;;;5.94;46.03;100671.38;103760;279;39463;-71
2023/03/19 00:45:50;;;;;;;25.50;14.30;;;;;;;5.90;46.02;100673.17;103712;279;39425;-69
2023/03/19 00:48:25;;;;;;;28.00;14.90;;;;;;;5.88;46.13;100670.41;103684;267;38239;-70
2023/03/19 00:51:03;;;;;;;26.60;14.80;;;;;;;5.85;46.28;100667.86;103665;279;38695;-71
2023/03/19 00:53:40;;;;;;;25.70;14.80;;;;;;;5.81;46.31;100671.03;103712;279;38490;-71
2023/03/19 00:56:17;;;;;;;25.60;14.50;;;;;;;5.76;46.40;100669.70;103684;279;39903;-71
2023/03/19 00:58:51;;;;;;;29.00;15.90;;;;;;;5.73;46.46;100665.94;103705;279;38341;-71
2023/03/19 01:01:25;;;;;;;27.60;14.90;;;;;;;5.70;46.69;100668.40;103780;279;39409;-71
2023/03/19 01:03:59;;;;;;;27.80;15.20;;;;;;;5.66;46.84;100671.91;103716;279;38630;-72
2023/03/19 01:06:33;;;;;;;26.50;14.80;;;;;;;5.63;46.83;100671.43;103753;279;38502;-71
2023/03/19 01:09:07;;;;;;;30.80;16.70;;;;;;;5.60;46.99;100675.29;103668;279;40161;-71
2023/03/19 01:11:41;;;;;;;24.80;14.80;;;;;;;5.56;47.01;100673.27;103719;279;38515;-69
2023/03/19 01:14:17;;;;;;;28.00;16.30;;;;;;;5.51;47.24;100671.58;103699;279;38291;-71
2023/03/19 01:16:51;;;;;;;29.00;16.60;;;;;;;5.48;47.42;100672.33;102962;279;909294;-69
2023/03/19 01:19:26;;;;;;;25.00;14.70;;;;;;;5.45;47.54;100671.14;103704;280;39458;-68
2023/03/19 01:22:03;;;;;;;27.70;15.40;;;;;;;5.41;47.57;100669.29;103707;280;39623;-69
2023/03/19 01:24:39;;;;;;;27.90;15.20;;;;;;;5.39;47.74;100669.30;103059;280;909749;-69
2023/03/19 01:27:16;;;;;;;28.00;16.20;;;;;;;5.37;47.82;100672.27;103661;280;38597;-73
2023/03/19 01:29:50;;;;;;;28.80;15.50;;;;;;;5.35;48.00;100678.52;103698;279;38424;-73
2023/03/19 01:32:24;;;;;;;28.20;15.40;;;;;;;5.33;48.05;100682.52;103728;279;38297;-73
2023/03/19 01:34:58;;;;;;;27.00;15.50;;;;;;;5.32;48.18;100682.89;103680;279;39953;-73
2023/03/19 01:37:32;;;;;;;25.30;15.40;;;;;;;5.31;48.15;100684.11;103689;279;38526;-72
2023/03/19 01:40:08;;;;;;;30.00;16.00;;;;;;;5.30;48.21;100684.47;103716;279;39055;-73
2023/03/19 01:42:56;;;;;;;28.90;15.20;;;;;;;5.28;48.40;100684.15;103758;267;39418;-72
2023/03/19 01:45:47;;;;;;;29.60;15.30;;;;;;;5.25;48.51;100681.94;103695;280;38787;-72
2023/03/19 01:48:33;;;;;;;28.00;15.00;;;;;;;5.22;48.57;100688.73;103705;280;38387;-71
2023/03/19 01:51:07;;;;;;;31.90;15.50;;;;;;;5.19;48.68;100685.28;103748;280;38403;-73
2023/03/19 01:53:41;;;;;;;28.30;15.50;;;;;;;5.18;48.76;100683.91;103690;280;39135;-72
2023/03/19 01:56:18;;;;;;;26.70;15.10;;;;;;;5.15;48.82;100682.04;103591;280;175507;-72
2023/03/19 01:58:53;;;;;;;26.40;15.20;;;;;;;5.14;48.88;100682.39;103747;280;39497;-72
2023/03/19 02:01:28;;;;;;;27.10;15.50;;;;;;;5.13;48.82;100683.10;103611;280;189824;-71
2023/03/19 02:04:02;;;;;;;31.10;15.50;;;;;;;5.11;49.04;100683.47;103672;280;38396;-72
2023/03/19 02:06:36;;;;;;;30.00;15.10;;;;;;;5.09;48.99;100679.68;103701;280;38421;-72
2023/03/19 02:09:10;;;;;;;28.60;16.00;;;;;;;5.08;49.09;100674.16;103691;280;38489;-72
2023/03/19 02:11:45;;;;;;;31.20;15.70;;;;;;;5.06;49.28;100675.74;103654;279;38635;-73
2023/03/19 02:14:19;;;;;;;27.00;15.50;;;;;;;5.03;49.27;100678.19;103698;279;38550;-72
2023/03/19 02:16:52;;;;;;;27.70;15.50;;;;;;;5.01;49.50;100676.14;103726;279;40000;-71
2023/03/19 02:19:31;;;;;;;28.20;16.30;;;;;;;5.00;49.64;100672.33;103718;279;38716;-71
2023/03/19 02:22:05;;;;;;;32.10;17.10;;;;;;;5.00;49.64;100672.86;103684;279;38323;-70
2023/03/19 02:24:41;;;;;;;30.50;16.20;;;;;;;4.98;49.73;100670.46;103684;279;38511;-71
2023/03/19 02:27:14;;;;;;;29.40;15.60;;;;;;;4.96;49.87;100671.17;103738;279;38695;-73
2023/03/19 02:29:48;;;;;;;28.20;16.10;;;;;;;4.95;50.01;100671.00;103574;279;175525;-72
2023/03/19 02:32:22;;;;;;;28.80;16.90;;;;;;;4.93;50.01;100669.48;103745;279;39555;-71
2023/03/19 02:34:56;;;;;;;30.20;16.50;;;;;;;4.93;50.16;100672.76;103694;279;38246;-69
2023/03/19 02:37:31;;;;;;;30.40;16.60;;;;;;;4.92;50.13;100670.34;103741;279;38766;-72
2023/03/19 02:40:07;;;;;;;30.50;17.30;;;;;;;4.92;50.07;100673.80;103690;279;38692;-73
2023/03/19 02:42:41;;;;;;;31.70;17.70;;;;;;;4.91;50.27;100680.04;103764;279;38609;-69
2023/03/19 02:45:21;;;;;;;30.60;16.60;;;;;;;4.89;50.34;100682.46;103735;279;38288;-72
2023/03/19 02:47:55;;;;;;;30.90;17.00;;;;;;;4.87;50.50;100683.18;103689;279;38373;-71
2023/03/19 02:50:29;;;;;;;30.20;16.50;;;;;;;4.85;50.55;100685.11;103678;279;38512;-71
2023/03/19 02:53:03;;;;;;;31.50;16.50;;;;;;;4.84;50.63;100683.05;103615;279;175551;-70
2023/03/19 02:55:36;;;;;;;27.20;16.30;;;;;;;4.81;50.68;100682.05;103724;279;38526;-71
2023/03/19 02:58:10;;;;;;;28.60;17.10;;;;;;;4.79;50.70;100680.33;103731;279;39661;-72
2023/03/19 03:00:45;;;;;;;31.40;16.30;;;;;;;4.77;50.84;100683.63;103796;279;39861;-70
2023/03/19 03:03:19;;;;;;;32.70;16.60;;;;;;;4.75;50.92;100687.10;103776;279;39416;-71
2023/03/19 03:05:53;;;;;;;29.70;16.50;;;;;;;4.71;51.26;100690.08;103732;279;40220;-73
2023/03/19 03:08:28;;;;;;;32.20;15.80;;;;;;;4.66;51.41;100693.23;103713;279;39279;-74
2023/03/19 03:11:02;;;;;;;29.40;15.70;;;;;;;4.61;51.51;100691.20;103672;276;39990;-73
2023/03/19 03:13:37;;;;;;;32.50;16.50;;;;;;;4.57;51.58;100686.05;103783;279;39637;-72
2023/03/19 03:16:12;;;;;;;30.50;17.30;;;;;;;4.53;51.73;100685.05;103776;279;38443;-72
2023/03/19 03:18:45;;;;;;;28.40;16.90;;;;;;;4.51;51.81;100683.15;103827;279;39664;-73
2023/03/19 03:21:20;;;;;;;29.40;18.10;;;;;;;4.49;51.89;100685.25;103754;279;38597;-73
2023/03/19 03:23:54;;;;;;;28.00;16.20;;;;;;;4.48;51.87;100683.02;103750;279;39869;-69
2023/03/19 03:26:28;;;;;;;33.50;16.50;;;;;;;4.46;51.85;100684.92;103720;279;39877;-70
2023/03/19 03:29:02;;;;;;;30.80;16.50;;;;;;;4.46;52.10;100684.59;103767;279;39471;-71
2023/03/19 03:31:38;;;;;;;34.20;17.10;;;;;;;4.45;52.07;100688.39;103783;279;38620;-72
2023/03/19 03:34:12;;;;;;;30.00;15.90;;;;;;;4.44;52.05;100684.27;103651;280;38483;-71
2023/03/19 03:36:46;;;;;;;30.50;17.20;;;;;;;4.44;52.13;100682.02;103791;279;39497;-72
2023/03/19 03:39:20;;;;;;;29.50;15.90;;;;;;;4.42;52.24;100681.52;103755;279;38279;-72
2023/03/19 03:41:54;;;;;;;26.20;16.20;;;;;;;4.39;52.33;100681.19;103772;279;38912;-71
2023/03/19 03:44:28;;;;;;;32.00;17.20;;;;;;;4.36;52.37;100680.17;103703;279;38862;-72
2023/03/19 03:47:02;;;;;;;30.00;17.20;;;;;;;4.35;52.34;100678.11;103723;279;39164;-70
2023/03/19 03:49:36;;;;;;;31.80;16.70;;;;;;;4.33;52.50;100679.51;103735;276;38506;-70
2023/03/19 03:52:11;;;;;;;34.10;18.20;;;;;;;4.31;52.47;100676.41;103777;279;38252;-71
2023/03/19 03:54:45;;;;;;;28.00;16.30;;;;;;;4.29;52.40;100672.80;103761;279;39419;-69
2023/03/19 03:57:19;;;;;;;29.90;17.30;;;;;;;4.27;52.54;100673.52;103764;279;38504;-71
2023/03/19 03:59:53;;;;;;;33.40;17.70;;;;;;;4.24;52.68;100672.67;103745;279;39675;-69
2023/03/19 04:02:27;;;;;;;29.80;17.30;;;;;;;4.21;52.82;100671.65;103710;279;39721;-72
2023/03/19 04:05:01;;;;;;;34.70;17.40;;;;;;;4.18;52.92;100672.02;103706;279;38480;-71
2023/03/19 04:07:35;;;;;;;36.30;18.30;;;;;;;4.15;52.98;100668.92;103616;279;175627;-71
2023/03/19 04:10:12;;;;;;;36.30;19.30;;;;;;;4.12;53.01;100667.58;103699;279;39422;-71
2023/03/19 04:12:47;;;;;;;36.30;18.50;;;;;;;4.10;53.21;100666.38;103764;267;39748;-74
2023/03/19 04:15:21;;;;;;;32.20;17.30;;;;;;;4.08;53.06;100668.98;103721;279;39472;-73
2023/03/19 04:17:55;;;;;;;37.40;18.80;;;;;;;4.07;53.20;100672.80;103682;279;39392;-74
2023/03/19 04:20:30;;;;;;;35.50;19.00;;;;;;;4.04;53.21;100667.97;103705;279;38365;-72
2023/03/19 04:23:04;;;;;;;32.30;16.80;;;;;;;4.00;53.30;100668.67;103698;279;38878;-72
2023/03/19 04:25:40;;;;;;;30.70;17.10;;;;;;;3.98;53.28;100666.80;103696;279;38261;-72
2023/03/19 04:28:15;;;;;;;29.70;16.00;;;;;;;3.95;53.38;100660.77;103738;279;38677;-72
2023/03/19 04:30:49;;;;;;;29.70;15.50;;;;;;;3.92;53.35;100660.98;103723;269;39817;-70
2023/03/19 04:33:24;;;;;;;30.80;15.70;;;;;;;3.90;53.33;100660.29;103695;279;38553;-72
2023/03/19 04:35:58;;;;;;;29.30;16.00;;;;;;;3.87;53.51;100661.16;103805;279;39433;-71
2023/03/19 04:38:32;;;;;;;31.10;16.70;;;;;;;3.84;53.62;100666.54;103774;279;39432;-71
2023/03/19 04:41:06;;;;;;;29.90;16.10;;;;;;;3.79;53.67;100666.91;103738;279;38238;-70
2023/03/19 04:43:47;;;;;;;29.40;16.00;;;;;;;3.73;53.87;100664.35;103632;279;175320;-70
2023/03/19 04:46:24;;;;;;;27.90;15.30;;;;;;;3.66;54.22;100667.50;103750;279;38237;-72
2023/03/19 04:48:58;;;;;;;29.50;16.80;;;;;;;3.62;54.26;100661.65;103763;279;38241;-71
2023/03/19 04:51:34;;;;;;;30.40;15.90;;;;;;;3.59;54.74;100661.33;103729;279;38499;-72
2023/03/19 04:54:08;;;;;;;31.20;17.20;;;;;;;3.57;54.74;100665.13;103726;279;39921;-74
2023/03/19 04:56:44;;;;;;;32.30;17.80;;;;;;;3.58;54.94;100667.88;103744;279;38384;-71
2023/03/19 04:59:18;;;;;;;29.70;17.00;;;;;;;3.58;54.86;100667.52;103699;279;38237;-71
2023/03/19 05:01:52;;;;;;;31.10;16.20;;;;;;;3.59;55.06;100666.49;103738;279;38669;-71
2023/03/19 05:04:28;;;;;;;28.60;16.40;;;;;;;3.58;54.97;100668.58;103713;279;38400;-72
2023/03/19 05:07:02;;;;;;;29.30;16.00;;;;;;;3.59;54.97;100673.05;103717;279;38665;-69
2023/03/19 05:09:36;;;;;;;31.00;17.40;;;;;;;3.56;55.13;100678.23;103746;279;38297;-69
2023/03/19 05:12:16;;;;;;;29.00;16.50;;;;;;;3.55;55.23;100679.29;103750;279;39891;-69
2023/03/19 05:14:51;;;;;;;32.90;17.20;;;;;;;3.53;55.28;100682.91;103698;280;39460;-71
2023/03/19 05:17:25;;;;;;;26.80;16.30;;;;;;;3.52;55.28;100681.19;103751;280;38436;-71
2023/03/19 05:20:00;;;;;;;30.50;18.30;;;;;;;3.51;55.27;100678.95;103666;280;38330;-71
2023/03/19 05:22:38;;;;;;;33.20;17.30;;;;;;;3.50;55.31;100679.65;103707;268;38319;-70
2023/03/19 05:25:13;;;;;;;29.70;17.50;;;;;;;3.52;55.55;100683.42;103693;280;38481;-72
2023/03/19 05:27:47;;;;;;;30.70;17.10;;;;;;;3.57;55.72;100683.40;103684;279;38399;-72
2023/03/19 05:30:23;;;;;;;32.00;17.30;;;;;;;3.64;55.78;100685.10;103701;279;39447;-69
2023/03/19 05:32:59;;;;;;;30.00;17.30;;;;;;;3.75;55.82;100689.71;103706;279;39415;-72
2023/03/19 05:35:33;;;;;;;30.30;18.20;;;;;;;3.86;55.95;100686.02;103702;279;38474;-72
2023/03/19 05:38:08;;;;;;;35.50;19.50;;;;;;;3.99;55.65;100685.27;103724;279;38356;-71
2023/03/19 05:40:42;;;;;;;43.40;21.10;;;;;;;4.12;55.52;100689.84;103731;275;38508;-72
2023/03/19 05:43:16;;;;;;;35.20;17.70;;;;;;;4.24;55.36;100692.69;103767;279;39722;-72
2023/03/19 05:45:55;;;;;;;35.70;18.00;;;;;;;4.38;55.16;100690.01;103772;279;38682;-71
2023/03/19 05:48:31;;;;;;;28.90;16.50;;;;;;;4.53;55.02;100685.91;103718;279;38352;-70
2023/03/19 05:51:07;;;;;;;32.40;16.50;;;;;;;4.68;54.64;100681.98;103739;279;38469;-72
2023/03/19 05:53:42;;;;;;;28.10;15.30;;;;;;;4.91;54.51;100681.23;103731;279;38250;-70
2023/03/19 05:56:18;;;;;;;24.50;15.30;;;;;;;5.67;55.22;100676.92;103700;279;38652;-70
2023/03/19 05:58:56;;;;;;;26.10;15.70;;;;;;;6.91;55.02;100677.77;103318;279;609746;-74
2023/03/19 06:01:30;;;;;;;25.80;15.90;;;;;;;8.29;53.30;100670.21;103770;279;39256;-70
2023/03/19 06:04:06;;;;;;;29.00;15.70;;;;;;;9.55;50.61;100667.61;103686;279;38789;-71
2023/03/19 06:06:40;;;;;;;24.60;15.20;;;;;;;10.60;48.06;100665.94;103718;279;38509;-70
2023/03/19 06:12:38;;;;;;;25.70;15.00;;;;;;;12.63;42.51;100662.88;103850;279;38306;-69
2023/03/19 06:15:14;;;;;;;25.50;15.90;;;;;;;13.11;40.90;100662.96;103660;279;175077;-69
2023/03/19 06:17:52;;;;;;;25.00;14.90;;;;;;;13.47;39.66;100659.80;103748;279;40112;-71
2023/03/19 06:20:27;;;;;;;22.40;15.40;;;;;;;13.77;38.10;100660.49;103663;279;177364;-71
2023/03/19 06:23:03;;;;;;;26.50;15.90;;;;;;;13.82;37.41;100665.04;103660;279;39148;-72
2023/03/19 06:25:39;;;;;;;24.90;15.20;;;;;;;13.72;37.41;100665.66;103657;280;38369;-74
2023/03/19 06:28:19;;;;;;;25.60;15.10;;;;;;;13.69;36.98;100669.46;103724;280;38865;-72
2023/03/19 06:30:56;;;;;;;27.30;15.50;;;;;;;13.66;36.74;100670.84;103757;280;39494;-76
2023/03/19 06:33:31;;;;;;;24.00;14.80;;;;;;;13.76;36.27;100673.02;103755;280;38265;-73
2023/03/19 06:36:06;;;;;;;23.90;14.50;;;;;;;13.84;36.22;100672.63;103520;281;38452;-73
2023/03/19 06:38:40;;;;;;;24.90;15.60;;;;;;;13.82;36.39;100670.30;103676;279;39472;-72
2023/03/19 06:41:15;;;;;;;22.50;14.60;;;;;;;13.79;36.07;100666.21;103636;279;188244;-72
2023/03/19 06:43:51;;;;;;;24.50;16.00;;;;;;;13.90;35.77;100674.65;103753;280;38262;-71
2023/03/19 06:46:25;;;;;;;26.10;15.80;;;;;;;14.11;35.85;100679.96;103791;279;40120;-72
2023/03/19 06:49:01;;;;;;;25.30;15.90;;;;;;;14.40;35.55;100675.40;103658;279;38488;-73
2023/03/19 06:51:36;;;;;;;22.60;15.40;;;;;;;14.63;34.95;100680.27;103781;267;38412;-74
2023/03/19 06:54:14;;;;;;;25.20;15.70;;;;;;;14.76;34.15;100682.73;103520;280;40381;-74
2023/03/19 06:56:49;;;;;;;23.40;15.50;;;;;;;14.86;34.13;100681.38;103670;279;38254;-72
2023/03/19 06:59:25;;;;;;;22.00;15.00;;;;;;;14.92;33.85;100674.17;103705;280;39798;-74
2023/03/19 07:02:00;;;;;;;21.80;15.10;;;;;;;14.82;33.27;100676.84;103661;280;38954;-73
2023/03/19 07:04:35;;;;;;;24.50;15.70;;;;;;;14.75;33.36;100681.22;103705;280;39892;-71
2023/03/19 07:07:09;;;;;;;21.60;15.00;;;;;;;14.73;33.46;100686.42;103737;279;38556;-74
2023/03/19 07:09:45;;;;;;;22.50;15.30;;;;;;;14.75;33.30;100685.62;103743;279;38488;-71
2023/03/19 07:12:19;;;;;;;23.20;15.70;;;;;;;14.77;33.24;100683.41;103719;279;39680;-71
2023/03/19 07:14:53;;;;;;;22.00;14.70;;;;;;;14.70;33.14;100691.14;103635;280;39645;-72
2023/03/19 07:17:28;;;;;;;22.70;15.40;;;;;;;14.61;33.29;100690.70;103722;279;38990;-72
2023/03/19 07:20:02;;;;;;;25.00;16.10;;;;;;;14.57;33.51;100691.82;103732;279;39867;-72
2023/03/19 07:22:36;;;;;;;24.20;15.60;;;;;;;14.56;33.65;100692.22;103785;279;38396;-72
2023/03/19 07:25:12;;;;;;;24.10;15.90;;;;;;;14.86;33.79;100698.77;103728;279;38271;-72
2023/03/19 07:27:47;;;;;;;21.40;14.90;;;;;;;15.24;33.28;100695.23;103698;279;38570;-72
2023/03/19 07:30:22;;;;;;;20.50;14.60;;;;;;;15.74;33.27;100695.59;103707;279;38365;-72
2023/03/19 07:32:56;;;;;;;21.40;15.30;;;;;;;16.35;32.02;100696.77;103725;279;38283;-72
2023/03/19 07:35:30;;;;;;;23.20;15.30;;;;;;;16.58;31.55;100698.81;103736;279;39516;-73
2023/03/19 07:38:05;;;;;;;21.50;15.00;;;;;;;16.82;31.57;100698.13;103798;279;38230;-74
2023/03/19 07:40:39;;;;;;;21.40;15.20;;;;;;;17.25;30.89;100696.48;103139;279;896945;-74
2023/03/19 07:43:22;;;;;;;22.60;15.40;;;;;;;17.63;30.58;100693.05;103698;279;39650;-76
2023/03/19 07:45:58;;;;;;;22.30;15.60;;;;;;;18.17;29.94;100689.48;103785;279;38849;-76
2023/03/19 07:48:33;;;;;;;21.60;15.50;;;;;;;18.79;29.69;100691.57;103710;279;39494;-77
2023/03/19 07:51:09;;;;;;;21.70;15.90;;;;;;;19.39;28.78;100692.47;103723;279;38240;-77
2023/03/19 07:53:44;;;;;;;19.40;14.60;;;;;;;20.03;28.06;100694.45;103684;279;38473;-75
2023/03/19 07:56:19;;;;;;;20.10;15.00;;;;;;;20.60;27.89;100694.77;103746;279;38637;-76
2023/03/19 07:58:54;;;;;;;22.50;15.80;;;;;;;21.30;27.08;100693.15;103802;279;39395;-76
2023/03/19 08:01:30;;;;;;;19.70;15.30;;;;;;;22.07;26.34;100680.64;103713;280;38278;-77
2023/03/19 08:04:05;;;;;;;17.40;14.30;;;;;;;22.87;25.75;100680.95;103615;279;38397;-76
2023/03/19 08:06:40;;;;;;;20.90;15.40;;;;;;;23.53;24.73;100680.84;103709;279;38512;-77
2023/03/19 08:09:14;;;;;;;19.80;15.50;;;;;;;23.94;23.62;100682.15;103841;279;38414;-76
2023/03/19 08:11:49;;;;;;;20.40;15.10;;;;;;;24.21;23.52;100680.17;103780;279;39413;-73
2023/03/19 08:14:23;;;;;;;18.70;14.60;;;;;;;24.78;23.34;100686.30;103783;279;39511;-74
2023/03/19 08:16:58;;;;;;;19.50;14.20;;;;;;;25.28;22.64;100679.73;103698;279;38726;-75
2023/03/19 08:19:33;;;;;;;19.10;15.10;;;;;;;25.34;21.64;100677.52;103834;279;39441;-73
2023/03/19 08:22:07;;;;;;;19.80;15.10;;;;;;;25.20;22.49;100682.73;103736;279;38379;-73
2023/03/19 08:24:42;;;;;;;17.70;14.30;;;;;;;25.34;22.24;100681.15;103791;279;38238;-73
2023/03/19 08:27:18;;;;;;;18.30;15.00;;;;;;;25.33;21.38;100679.63;103650;279;38281;-72
2023/03/19 08:29:52;;;;;;;17.40;14.20;;;;;;;25.04;21.68;100679.68;103751;279;39463;-72
2023/03/19 08:32:27;;;;;;;19.80;14.80;;;;;;;24.64;21.59;100684.02;103726;279;38247;-72
2023/03/19 08:35:01;;;;;;;19.10;14.50;;;;;;;24.32;22.07;100681.48;103788;279;38290;-73
2023/03/19 08:37:35;;;;;;;18.50;15.00;;;;;;;24.02;22.40;100680.61;103642;280;38260;-73
2023/03/19 08:40:12;;;;;;;21.20;15.20;;;;;;;23.81;22.71;100678.48;103754;279;38579;-74
2023/03/19 08:42:50;;;;;;;19.30;14.60;;;;;;;23.65;22.81;100676.40;103744;279;38396;-73
2023/03/19 08:45:24;;;;;;;17.80;14.50;;;;;;;23.49;22.70;100675.11;103771;279;38259;-72
2023/03/19 08:48:02;;;;;;;19.70;15.60;;;;;;;23.31;23.06;100677.53;103599;279;38929;-72
2023/03/19 08:50:40;;;;;;;19.70;15.20;;;;;;;23.14;23.53;100678.81;103666;280;39803;-74
2023/03/19 08:53:21;;;;;;;19.10;15.20;;;;;;;22.91;23.39;100676.91;103782;279;38261;-74
2023/03/19 08:56:00;;;;;;;19.90;15.10;;;;;;;22.68;23.50;100679.69;103538;279;38365;-74
2023/03/19 08:58:34;;;;;;;20.80;15.00;;;;;;;22.59;23.78;100679.90;103807;279;38245;-73
2023/03/19 09:01:10;;;;;;;17.50;14.00;;;;;;;22.54;23.96;100680.67;103783;279;38240;-74
2023/03/19 09:03:45;;;;;;;17.90;13.40;;;;;;;22.41;23.61;100678.20;103745;279;38310;-73
2023/03/19 09:06:19;;;;;;;18.20;14.00;;;;;;;22.10;23.93;100677.40;103761;279;38296;-72
2023/03/19 09:08:53;;;;;;;16.70;12.60;;;;;;;22.01;23.84;100678.42;103739;279;38358;-72
2023/03/19 09:11:27;;;;;;;16.40;12.30;;;;;;;21.76;23.92;100678.00;103694;279;38247;-73
2023/03/19 09:14:01;;;;;;;14.90;12.20;;;;;;;21.55;24.09;100678.54;103781;279;38371;-74
2023/03/19 09:16:35;;;;;;;15.70;12.50;;;;;;;21.52;24.43;100680.08;103709;279;38228;-75
2023/03/19 09:19:09;;;;;;;15.30;12.50;;;;;;;21.49;24.75;100682.78;103743;279;40142;-72
2023/03/19 09:21:43;;;;;;;14.30;11.80;;;;;;;21.43;24.66;100677.43;103677;279;39703;-72
2023/03/19 09:24:17;;;;;;;16.10;12.50;;;;;;;21.48;24.83;100677.39;103656;279;174481;-74
2023/03/19 09:26:51;;;;;;;14.30;12.10;;;;;;;21.65;24.69;100678.30;103648;279;39416;-72
2023/03/19 09:29:25;;;;;;;15.30;11.50;;;;;;;21.95;24.90;100675.40;103782;279;38292;-73
2023/03/19 09:32:00;;;;;;;14.50;12.50;;;;;;;22.26;24.44;100675.05;103739;279;39397;-74
2023/03/19 09:34:34;;;;;;;17.40;12.20;;;;;;;22.44;23.79;100669.83;103640;279;188121;-73
2023/03/19 09:37:10;;;;;;;14.60;11.80;;;;;;;22.56;23.97;100669.67;103664;279;39664;-72
2023/03/19 09:39:44;;;;;;;14.20;11.70;;;;;;;22.71;23.63;100659.55;103748;279;39626;-72
2023/03/19 09:42:43;;;;;;;14.70;12.00;;;;;;;22.70;23.08;100657.67;103694;279;38415;-75
2023/03/19 09:45:19;;;;;;;15.00;12.20;;;;;;;22.50;22.91;100657.05;103767;279;38480;-74
2023/03/19 09:47:57;;;;;;;12.10;10.90;;;;;;;22.46;23.51;100658.64;103629;279;174075;-72
2023/03/19 09:50:35;;;;;;;13.90;11.60;;;;;;;22.69;23.74;100653.85;103752;279;38324;-73
2023/03/19 09:53:15;;;;;;;12.30;11.00;;;;;;;22.64;23.25;100656.23;103800;279;38351;-73
2023/03/19 09:55:50;;;;;;;15.20;12.00;;;;;;;22.58;23.34;100654.09;103647;269;38266;-74
2023/03/19 09:58:31;;;;;;;14.50;11.30;;;;;;;22.61;23.31;100650.77;103740;279;38293;-73
2023/03/19 10:01:07;;;;;;;18.20;12.00;;;;;;;22.29;23.27;100653.42;103757;279;39972;-74
2023/03/19 10:03:57;;;;;;;14.00;12.10;;;;;;;22.17;23.37;100653.22;103633;279;174305;-73
2023/03/19 10:06:34;;;;;;;13.90;11.70;;;;;;;21.98;23.86;100653.63;103753;279;39443;-73
2023/03/19 10:09:31;;;;;;;13.00;10.90;;;;;;;21.78;23.63;100650.99;103757;269;38448;-72
2023/03/19 10:12:16;;;;;;;14.40;11.00;;;;;;;21.53;24.28;100650.03;103678;280;38594;-73
2023/03/19 10:15:03;;;;;;;12.60;11.10;;;;;;;21.29;24.48;100655.62;103717;280;39473;-72
2023/03/19 10:17:40;;;;;;;13.40;11.20;;;;;;;21.02;24.16;100661.41;103716;280;39079;-75
2023/03/19 10:20:20;;;;;;;14.90;11.10;;;;;;;20.72;24.52;100662.64;103770;279;38254;-73
2023/03/19 10:22:57;;;;;;;15.30;11.60;;;;;;;20.35;24.98;100662.16;103729;279;38296;-73
2023/03/19 10:25:41;;;;;;;16.30;10.90;;;;;;;20.02;25.17;100659.82;103718;279;38247;-73
2023/03/19 10:28:17;;;;;;;14.30;10.70;;;;;;;19.67;25.76;100655.14;103732;279;39128;-72
2023/03/19 10:30:55;;;;;;;15.70;11.20;;;;;;;19.40;26.25;100647.09;103707;279;38401;-72
2023/03/19 10:33:35;;;;;;;13.10;10.30;;;;;;;19.18;26.78;100649.89;103777;267;38259;-73
2023/03/19 10:36:12;;;;;;;13.10;10.60;;;;;;;19.01;26.92;100649.77;103694;280;39315;-72
2023/03/19 10:38:48;;;;;;;14.30;11.10;;;;;;;18.93;27.04;100648.06;103079;280;900904;-73
2023/03/19 10:41:40;;;;;;;15.40;10.80;;;;;;;18.80;27.45;100657.98;103689;280;38235;-73
2023/03/19 10:44:29;;;;;;;13.00;10.80;;;;;;;18.59;27.56;100664.30;103692;280;38720;-71
2023/03/19 10:47:12;;;;;;;15.80;10.50;;;;;;;18.40;27.47;100662.03;103704;280;38494;-73
2023/03/19 10:49:46;;;;;;;13.30;10.90;;;;;;;18.18;28.25;100660.99;103758;279;39207;-73
2023/03/19 10:52:24;;;;;;;15.30;11.60;;;;;;;18.15;28.24;100662.80;103740;279;38239;-73
2023/03/19 10:55:05;;;;;;;15.80;11.00;;;;;;;18.15;28.71;100664.59;103771;279;38281;-73
2023/03/19 10:57:40;;;;;;;15.70;11.20;;;;;;;18.29;28.79;100662.20;103758;279;38278;-73
2023/03/19 11:00:20;;;;;;;15.60;11.20;;;;;;;18.42;28.49;100653.77;103609;279;39939;-72
2023/03/19 11:02:58;;;;;;;12.40;10.20;;;;;;;18.54;28.76;100648.15;103722;279;39415;-71
2023/03/19 11:05:33;;;;;;;13.00;9.90;;;;;;;18.67;28.58;100650.31;103603;280;39155;-73
2023/03/19 11:08:14;;;;;;;12.60;10.40;;;;;;;18.72;27.85;100646.79;103617;278;38392;-73
2023/03/19 11:10:50;;;;;;;13.10;10.10;;;;;;;18.61;27.86;100645.59;103670;280;38233;-72
2023/03/19 11:13:25;;;;;;;12.40;10.20;;;;;;;18.58;28.49;100642.45;103684;280;38399;-71
2023/03/19 11:16:01;;;;;;;13.30;10.60;;;;;;;18.65;28.41;100643.25;103579;280;38643;-72
2023/03/19 11:18:40;;;;;;;11.80;9.60;;;;;;;18.58;28.19;100640.16;103707;280;39434;-71
2023/03/19 11:21:28;;;;;;;13.40;10.00;;;;;;;18.56;28.53;100633.90;103712;280;38505;-71
2023/03/19 11:24:06;;;;;;;14.10;11.10;;;;;;;18.55;28.24;100625.70;103687;280;38464;-72
2023/03/19 11:26:40;;;;;;;14.70;11.10;;;;;;;18.53;28.43;100622.09;103607;280;39024;-73
2023/03/19 11:29:15;;;;;;;14.00;10.40;;;;;;;18.54;28.51;100617.07;103606;280;39581;-72
2023/03/19 11:31:51;;;;;;;12.20;9.90;;;;;;;18.58;29.28;100613.84;103618;280;38366;-70
2023/03/19 11:34:32;;;;;;;14.50;10.30;;;;;;;18.61;28.99;100616.32;103671;280;38235;-71
2023/03/19 11:37:11;;;;;;;13.90;9.80;;;;;;;18.54;28.30;100613.59;103562;280;174833;-71
2023/03/19 11:39:47;;;;;;;;;;;;;;;18.35;28.47;100608.82;103617;280;38401;-70
2023/03/19 11:42:51;;;;;;;13.70;10.20;;;;;;;18.14;28.72;100601.06;103439;281;174832;-70
2023/03/19 11:45:32;;;;;;;11.20;9.40;;;;;;;18.04;29.25;100593.91;103537;281;38273;-71
2023/03/19 11:48:26;;;;;;;13.10;9.90;;;;;;;18.00;29.46;100593.30;103592;281;38402;-71
2023/03/19 11:51:03;;;;;;;13.40;9.40;;;;;;;17.96;29.57;100590.05;103535;281;38401;-71
2023/03/19 11:53:41;;;;;;;13.20;9.70;;;;;;;17.93;29.67;100587.58;103617;280;38920;-70
2023/03/19 11:56:20;;;;;;;12.90;9.90;;;;;;;17.89;29.70;100585.89;103663;280;38985;-71
2023/03/19 11:59:05;;;;;;;13.50;9.20;;;;;;;17.89;29.85;100583.27;103672;280;39451;-69